sensor_id;sensor_type;location;lat;lon;timestamp;temperature;humidity
14119;DHT22;7138;49.246;9.100;2022-12-04T00:01:41;1.20;99.90
14119;DHT22;7138;49.246;9.100;2022-12-04T00:04:09;1.20;99.90
14119;DHT22;7138;49.246;9.100;2022-12-04T00:06:35;1.20;99.90
14119;DHT22;7138;49.246;9.100;2022-12-04T00:09:03;1.20;99.90
14119;DHT22;7138;49.246;9.100;2022-12-04T00:11:31;1.30;99.90
14119;DHT22;7138;49.246;9.100;2022-12-04T00:13:58;1.30;99.90
14119;DHT22;7138;49.246;9.100;2022-12-04T00:16:26;1.30;99.90
14119;DHT22;7138;49.246;9.100;2022-12-04T00:18:54;1.30;99.90
14119;DHT22;7138;49.246;9.100;2022-12-04T00:21:22;1.30;99.90
14119;DHT22;7138;49.246;9.100;2022-12-04T00:23:49;1.20;99.90
14119;DHT22;7138;49.246;9.100;2022-12-04T00:26:19;1.30;99.90
14119;DHT22;7138;49.246;9.100;2022-12-04T00:28:48;1.30;99.90
14119;DHT22;7138;49.246;9.100;2022-12-04T00:31:17;1.30;99.90
14119;DHT22;7138;49.246;9.100;2022-12-04T00:33:44;1.30;99.90
14119;DHT22;7138;49.246;9.100;2022-12-04T00:36:12;1.30;99.90
14119;DHT22;7138;49.246;9.100;2022-12-04T00:38:39;1.30;99.90
14119;DHT22;7138;49.246;9.100;2022-12-04T00:41:07;1.40;99.90
14119;DHT22;7138;49.246;9.100;2022-12-04T00:43:36;1.30;99.90
14119;DHT22;7138;49.246;9.100;2022-12-04T00:46:02;1.30;99.90
14119;DHT22;7138;49.246;9.100;2022-12-04T00:48:28;1.30;99.90
14119;DHT22;7138;49.246;9.100;2022-12-04T00:50:54;1.30;99.90
14119;DHT22;7138;49.246;9.100;2022-12-04T00:53:20;1.30;99.90
14119;DHT22;7138;49.246;9.100;2022-12-04T00:55:46;1.40;99.90
14119;DHT22;7138;49.246;9.100;2022-12-04T00:58:12;1.40;99.90
14119;DHT22;7138;49.246;9.100;2022-12-04T01:00:41;1.40;99.90
14119;DHT22;7138;49.246;9.100;2022-12-04T01:03:08;1.40;99.90
14119;DHT22;7138;49.246;9.100;2022-12-04T01:05:37;1.40;99.90
14119;DHT22;7138;49.246;9.100;2022-12-04T01:08:04;1.40;99.90
14119;DHT22;7138;49.246;9.100;2022-12-04T01:10:30;1.40;99.90
14119;DHT22;7138;49.246;9.100;2022-12-04T01:12:55;1.40;99.90
14119;DHT22;7138;49.246;9.100;2022-12-04T01:15:21;1.40;99.90
14119;DHT22;7138;49.246;9.100;2022-12-04T01:17:49;1.40;99.90
14119;DHT22;7138;49.246;9.100;2022-12-04T01:20:15;1.40;99.90
14119;DHT22;7138;49.246;9.100;2022-12-04T01:22:41;1.40;99.90
14119;DHT22;7138;49.246;9.100;2022-12-04T01:25:08;1.40;99.90
14119;DHT22;7138;49.246;9.100;2022-12-04T01:27:34;1.40;99.90
14119;DHT22;7138;49.246;9.100;2022-12-04T01:30:00;1.50;99.90
14119;DHT22;7138;49.246;9.100;2022-12-04T01:32:27;1.50;99.90
14119;DHT22;7138;49.246;9.100;2022-12-04T01:34:54;1.50;99.90
14119;DHT22;7138;49.246;9.100;2022-12-04T01:37:20;1.50;99.90
14119;DHT22;7138;49.246;9.100;2022-12-04T01:39:46;1.50;99.90
14119;DHT22;7138;49.246;9.100;2022-12-04T01:42:12;1.50;99.90
14119;DHT22;7138;49.246;9.100;2022-12-04T01:44:43;1.50;99.90
14119;DHT22;7138;49.246;9.100;2022-12-04T01:47:29;1.50;99.90
14119;DHT22;7138;49.246;9.100;2022-12-04T01:49:58;1.50;99.90
14119;DHT22;7138;49.246;9.100;2022-12-04T01:52:24;1.50;99.90
14119;DHT22;7138;49.246;9.100;2022-12-04T01:54:58;1.60;99.90
14119;DHT22;7138;49.246;9.100;2022-12-04T01:57:27;1.60;99.90
14119;DHT22;7138;49.246;9.100;2022-12-04T01:59:59;1.50;99.90
14119;DHT22;7138;49.246;9.100;2022-12-04T02:02:30;1.50;99.90
14119;DHT22;7138;49.246;9.100;2022-12-04T02:05:01;1.60;99.90
14119;DHT22;7138;49.246;9.100;2022-12-04T02:07:30;1.50;99.90
14119;DHT22;7138;49.246;9.100;2022-12-04T02:09:57;1.60;99.90
14119;DHT22;7138;49.246;9.100;2022-12-04T02:12:33;1.60;99.90
14119;DHT22;7138;49.246;9.100;2022-12-04T02:15:09;1.60;99.90
14119;DHT22;7138;49.246;9.100;2022-12-04T02:17:49;1.60;99.90
14119;DHT22;7138;49.246;9.100;2022-12-04T02:20:31;1.60;99.90
14119;DHT22;7138;49.246;9.100;2022-12-04T02:23:18;1.60;99.90
14119;DHT22;7138;49.246;9.100;2022-12-04T02:26:00;1.60;99.90
14119;DHT22;7138;49.246;9.100;2022-12-04T02:28:40;1.70;99.90
14119;DHT22;7138;49.246;9.100;2022-12-04T02:31:17;1.70;99.90
14119;DHT22;7138;49.246;9.100;2022-12-04T02:33:52;1.70;99.90
14119;DHT22;7138;49.246;9.100;2022-12-04T02:36:27;1.70;99.90
14119;DHT22;7138;49.246;9.100;2022-12-04T02:38:59;1.70;99.90
14119;DHT22;7138;49.246;9.100;2022-12-04T02:41:34;1.70;99.90
14119;DHT22;7138;49.246;9.100;2022-12-04T02:44:11;1.70;99.90
14119;DHT22;7138;49.246;9.100;2022-12-04T02:46:44;1.70;99.90
14119;DHT22;7138;49.246;9.100;2022-12-04T02:49:17;1.70;99.90
14119;DHT22;7138;49.246;9.100;2022-12-04T02:51:49;1.70;99.90
14119;DHT22;7138;49.246;9.100;2022-12-04T02:54:20;1.70;99.90
14119;DHT22;7138;49.246;9.100;2022-12-04T02:56:50;1.70;99.90
14119;DHT22;7138;49.246;9.100;2022-12-04T02:59:23;1.70;99.90
14119;DHT22;7138;49.246;9.100;2022-12-04T03:01:56;1.70;99.90
14119;DHT22;7138;49.246;9.100;2022-12-04T03:04:27;1.70;99.90
14119;DHT22;7138;49.246;9.100;2022-12-04T03:07:01;1.70;99.90
14119;DHT22;7138;49.246;9.100;2022-12-04T03:09:34;1.70;99.90
14119;DHT22;7138;49.246;9.100;2022-12-04T03:12:08;1.70;99.90
14119;DHT22;7138;49.246;9.100;2022-12-04T03:14:43;1.70;99.90
14119;DHT22;7138;49.246;9.100;2022-12-04T03:17:20;1.70;99.90
14119;DHT22;7138;49.246;9.100;2022-12-04T03:19:53;1.80;99.90
14119;DHT22;7138;49.246;9.100;2022-12-04T03:22:23;1.80;99.90
14119;DHT22;7138;49.246;9.100;2022-12-04T03:24:52;1.70;99.90
14119;DHT22;7138;49.246;9.100;2022-12-04T03:27:25;1.70;99.90
14119;DHT22;7138;49.246;9.100;2022-12-04T03:30:01;1.70;99.90
14119;DHT22;7138;49.246;9.100;2022-12-04T03:32:34;1.70;99.90
14119;DHT22;7138;49.246;9.100;2022-12-04T03:35:07;1.70;99.90
14119;DHT22;7138;49.246;9.100;2022-12-04T03:37:44;1.80;99.90
14119;DHT22;7138;49.246;9.100;2022-12-04T03:40:21;1.70;99.90
14119;DHT22;7138;49.246;9.100;2022-12-04T03:42:55;1.70;99.90
14119;DHT22;7138;49.246;9.100;2022-12-04T03:45:35;1.80;99.90
14119;DHT22;7138;49.246;9.100;2022-12-04T03:48:12;1.80;99.90
14119;DHT22;7138;49.246;9.100;2022-12-04T03:50:48;1.80;99.90
14119;DHT22;7138;49.246;9.100;2022-12-04T03:53:22;1.80;99.90
14119;DHT22;7138;49.246;9.100;2022-12-04T03:55:58;1.80;99.90
14119;DHT22;7138;49.246;9.100;2022-12-04T03:58:30;1.80;99.90
14119;DHT22;7138;49.246;9.100;2022-12-04T04:01:04;1.80;99.90
14119;DHT22;7138;49.246;9.100;2022-12-04T04:03:35;1.80;99.90
14119;DHT22;7138;49.246;9.100;2022-12-04T04:06:08;1.80;99.90
14119;DHT22;7138;49.246;9.100;2022-12-04T04:08:40;1.80;99.90
14119;DHT22;7138;49.246;9.100;2022-12-04T04:11:15;1.90;99.90
14119;DHT22;7138;49.246;9.100;2022-12-04T04:13:48;1.80;99.90
14119;DHT22;7138;49.246;9.100;2022-12-04T04:16:39;1.90;99.90
14119;DHT22;7138;49.246;9.100;2022-12-04T04:19:31;1.80;99.90
14119;DHT22;7138;49.246;9.100;2022-12-04T04:22:19;1.80;99.90
14119;DHT22;7138;49.246;9.100;2022-12-04T04:25:10;1.90;99.90
14119;DHT22;7138;49.246;9.100;2022-12-04T04:27:38;1.90;99.90
14119;DHT22;7138;49.246;9.100;2022-12-04T04:30:05;1.90;99.90
14119;DHT22;7138;49.246;9.100;2022-12-04T04:32:37;1.90;99.90
14119;DHT22;7138;49.246;9.100;2022-12-04T04:35:15;1.80;99.90
14119;DHT22;7138;49.246;9.100;2022-12-04T04:37:52;1.90;99.90
14119;DHT22;7138;49.246;9.100;2022-12-04T04:40:23;1.90;99.90
14119;DHT22;7138;49.246;9.100;2022-12-04T04:42:58;1.90;99.90
14119;DHT22;7138;49.246;9.100;2022-12-04T04:45:33;1.90;99.90
14119;DHT22;7138;49.246;9.100;2022-12-04T04:48:06;1.90;99.90
14119;DHT22;7138;49.246;9.100;2022-12-04T04:50:35;1.90;99.90
14119;DHT22;7138;49.246;9.100;2022-12-04T04:53:05;1.90;99.90
14119;DHT22;7138;49.246;9.100;2022-12-04T04:55:35;1.90;99.90
14119;DHT22;7138;49.246;9.100;2022-12-04T04:58:08;1.90;99.90
14119;DHT22;7138;49.246;9.100;2022-12-04T05:00:36;1.90;99.90
14119;DHT22;7138;49.246;9.100;2022-12-04T05:03:04;1.90;99.90
14119;DHT22;7138;49.246;9.100;2022-12-04T05:05:31;1.90;99.90
14119;DHT22;7138;49.246;9.100;2022-12-04T05:07:57;1.90;99.90
14119;DHT22;7138;49.246;9.100;2022-12-04T05:10:23;1.90;99.90
14119;DHT22;7138;49.246;9.100;2022-12-04T05:12:49;1.90;99.90
14119;DHT22;7138;49.246;9.100;2022-12-04T05:15:15;1.90;99.90
14119;DHT22;7138;49.246;9.100;2022-12-04T05:17:41;1.90;99.90
14119;DHT22;7138;49.246;9.100;2022-12-04T05:20:09;1.90;99.90
14119;DHT22;7138;49.246;9.100;2022-12-04T05:22:36;1.90;99.90
14119;DHT22;7138;49.246;9.100;2022-12-04T05:25:03;2.00;99.90
14119;DHT22;7138;49.246;9.100;2022-12-04T05:27:30;2.00;99.90
14119;DHT22;7138;49.246;9.100;2022-12-04T05:29:57;1.90;99.90
14119;DHT22;7138;49.246;9.100;2022-12-04T05:32:25;2.00;99.90
14119;DHT22;7138;49.246;9.100;2022-12-04T05:34:53;2.00;99.90
14119;DHT22;7138;49.246;9.100;2022-12-04T05:37:22;2.00;99.90
14119;DHT22;7138;49.246;9.100;2022-12-04T05:39:48;2.00;99.90
14119;DHT22;7138;49.246;9.100;2022-12-04T05:42:14;1.90;99.90
14119;DHT22;7138;49.246;9.100;2022-12-04T05:44:41;1.90;99.90
14119;DHT22;7138;49.246;9.100;2022-12-04T05:47:07;2.00;99.90
14119;DHT22;7138;49.246;9.100;2022-12-04T05:49:33;2.00;99.90
14119;DHT22;7138;49.246;9.100;2022-12-04T05:52:00;2.00;99.90
14119;DHT22;7138;49.246;9.100;2022-12-04T05:54:28;1.90;99.90
14119;DHT22;7138;49.246;9.100;2022-12-04T05:56:54;2.00;99.90
14119;DHT22;7138;49.246;9.100;2022-12-04T05:59:19;2.00;99.90
14119;DHT22;7138;49.246;9.100;2022-12-04T06:01:45;2.00;99.90
14119;DHT22;7138;49.246;9.100;2022-12-04T06:04:11;1.90;99.90
14119;DHT22;7138;49.246;9.100;2022-12-04T06:06:37;2.00;99.90
14119;DHT22;7138;49.246;9.100;2022-12-04T06:09:05;2.00;99.90
14119;DHT22;7138;49.246;9.100;2022-12-04T06:11:35;2.00;99.90
14119;DHT22;7138;49.246;9.100;2022-12-04T06:14:03;2.00;99.90
14119;DHT22;7138;49.246;9.100;2022-12-04T06:16:34;1.90;99.90
14119;DHT22;7138;49.246;9.100;2022-12-04T06:19:04;2.00;99.90
14119;DHT22;7138;49.246;9.100;2022-12-04T06:21:34;2.00;99.90
14119;DHT22;7138;49.246;9.100;2022-12-04T06:24:01;1.90;99.90
14119;DHT22;7138;49.246;9.100;2022-12-04T06:26:28;1.90;99.90
14119;DHT22;7138;49.246;9.100;2022-12-04T06:28:57;2.00;99.90
14119;DHT22;7138;49.246;9.100;2022-12-04T06:31:24;1.90;99.90
14119;DHT22;7138;49.246;9.100;2022-12-04T06:33:52;1.90;99.90
14119;DHT22;7138;49.246;9.100;2022-12-04T06:36:20;2.00;99.90
14119;DHT22;7138;49.246;9.100;2022-12-04T06:38:47;2.00;99.90
14119;DHT22;7138;49.246;9.100;2022-12-04T06:41:16;1.90;99.90
14119;DHT22;7138;49.246;9.100;2022-12-04T06:43:43;2.00;99.90
14119;DHT22;7138;49.246;9.100;2022-12-04T06:46:13;2.00;99.90
14119;DHT22;7138;49.246;9.100;2022-12-04T06:48:39;2.00;99.90
14119;DHT22;7138;49.246;9.100;2022-12-04T06:51:07;1.90;99.90
14119;DHT22;7138;49.246;9.100;2022-12-04T06:53:35;2.00;99.90
14119;DHT22;7138;49.246;9.100;2022-12-04T06:56:03;2.00;99.90
14119;DHT22;7138;49.246;9.100;2022-12-04T06:58:31;2.00;99.90
14119;DHT22;7138;49.246;9.100;2022-12-04T07:00:57;2.00;99.90
14119;DHT22;7138;49.246;9.100;2022-12-04T07:03:25;2.00;99.90
14119;DHT22;7138;49.246;9.100;2022-12-04T07:05:51;2.00;99.90
14119;DHT22;7138;49.246;9.100;2022-12-04T07:08:17;2.00;99.90
14119;DHT22;7138;49.246;9.100;2022-12-04T07:10:43;2.00;99.90
14119;DHT22;7138;49.246;9.100;2022-12-04T07:13:09;2.00;99.90
14119;DHT22;7138;49.246;9.100;2022-12-04T07:15:36;2.00;99.90
14119;DHT22;7138;49.246;9.100;2022-12-04T07:18:03;2.00;99.90
14119;DHT22;7138;49.246;9.100;2022-12-04T07:20:31;2.00;99.90
14119;DHT22;7138;49.246;9.100;2022-12-04T07:22:57;2.00;99.90
14119;DHT22;7138;49.246;9.100;2022-12-04T07:25:23;2.00;99.90
14119;DHT22;7138;49.246;9.100;2022-12-04T07:27:49;2.00;99.90
14119;DHT22;7138;49.246;9.100;2022-12-04T07:30:15;2.00;99.90
14119;DHT22;7138;49.246;9.100;2022-12-04T07:32:41;2.00;99.90
14119;DHT22;7138;49.246;9.100;2022-12-04T07:35:07;2.00;99.90
14119;DHT22;7138;49.246;9.100;2022-12-04T07:37:35;2.10;99.90
14119;DHT22;7138;49.246;9.100;2022-12-04T07:40:02;2.10;99.90
14119;DHT22;7138;49.246;9.100;2022-12-04T07:42:28;2.10;99.90
14119;DHT22;7138;49.246;9.100;2022-12-04T07:44:54;2.10;99.90
14119;DHT22;7138;49.246;9.100;2022-12-04T07:47:20;2.10;99.90
14119;DHT22;7138;49.246;9.100;2022-12-04T07:49:46;2.10;99.90
14119;DHT22;7138;49.246;9.100;2022-12-04T07:52:11;2.10;99.90
14119;DHT22;7138;49.246;9.100;2022-12-04T07:54:39;2.10;99.90
14119;DHT22;7138;49.246;9.100;2022-12-04T07:57:04;2.10;99.90
14119;DHT22;7138;49.246;9.100;2022-12-04T07:59:30;2.10;99.90
14119;DHT22;7138;49.246;9.100;2022-12-04T08:01:56;2.10;99.90
14119;DHT22;7138;49.246;9.100;2022-12-04T08:04:22;2.10;99.90
14119;DHT22;7138;49.246;9.100;2022-12-04T08:06:48;2.20;99.90
14119;DHT22;7138;49.246;9.100;2022-12-04T08:09:14;2.20;99.90
14119;DHT22;7138;49.246;9.100;2022-12-04T08:11:41;2.20;99.90
14119;DHT22;7138;49.246;9.100;2022-12-04T08:14:10;2.20;99.90
14119;DHT22;7138;49.246;9.100;2022-12-04T08:16:36;2.20;99.90
14119;DHT22;7138;49.246;9.100;2022-12-04T08:19:02;2.20;99.90
14119;DHT22;7138;49.246;9.100;2022-12-04T08:21:32;2.20;99.90
14119;DHT22;7138;49.246;9.100;2022-12-04T08:23:59;2.10;99.90
14119;DHT22;7138;49.246;9.100;2022-12-04T08:26:26;2.20;99.90
14119;DHT22;7138;49.246;9.100;2022-12-04T08:28:56;2.20;99.90
14119;DHT22;7138;49.246;9.100;2022-12-04T08:31:24;2.20;99.90
14119;DHT22;7138;49.246;9.100;2022-12-04T08:33:54;2.30;99.90
14119;DHT22;7138;49.246;9.100;2022-12-04T08:36:21;2.20;99.90
14119;DHT22;7138;49.246;9.100;2022-12-04T08:38:48;2.20;99.90
14119;DHT22;7138;49.246;9.100;2022-12-04T08:41:15;2.20;99.90
14119;DHT22;7138;49.246;9.100;2022-12-04T08:43:43;2.30;99.90
14119;DHT22;7138;49.246;9.100;2022-12-04T08:46:13;2.30;99.90
14119;DHT22;7138;49.246;9.100;2022-12-04T08:48:41;2.40;99.90
14119;DHT22;7138;49.246;9.100;2022-12-04T08:51:12;2.30;99.90
14119;DHT22;7138;49.246;9.100;2022-12-04T08:53:39;2.40;99.90
14119;DHT22;7138;49.246;9.100;2022-12-04T08:56:05;2.40;99.90
14119;DHT22;7138;49.246;9.100;2022-12-04T08:58:31;2.40;99.90
14119;DHT22;7138;49.246;9.100;2022-12-04T09:01:03;2.40;99.90
14119;DHT22;7138;49.246;9.100;2022-12-04T09:03:31;2.50;99.90
14119;DHT22;7138;49.246;9.100;2022-12-04T09:05:58;2.40;99.90
14119;DHT22;7138;49.246;9.100;2022-12-04T09:08:24;2.50;99.90
14119;DHT22;7138;49.246;9.100;2022-12-04T09:10:50;2.50;99.90
14119;DHT22;7138;49.246;9.100;2022-12-04T09:13:16;2.50;99.90
14119;DHT22;7138;49.246;9.100;2022-12-04T09:15:42;2.50;99.90
14119;DHT22;7138;49.246;9.100;2022-12-04T09:18:08;2.50;99.90
14119;DHT22;7138;49.246;9.100;2022-12-04T09:20:37;2.60;99.90
14119;DHT22;7138;49.246;9.100;2022-12-04T09:23:04;2.60;99.90
14119;DHT22;7138;49.246;9.100;2022-12-04T09:25:30;2.60;99.90
14119;DHT22;7138;49.246;9.100;2022-12-04T09:27:56;2.60;99.90
14119;DHT22;7138;49.246;9.100;2022-12-04T09:30:22;2.60;99.90
14119;DHT22;7138;49.246;9.100;2022-12-04T09:32:48;2.60;99.90
14119;DHT22;7138;49.246;9.100;2022-12-04T09:35:13;2.60;99.90
14119;DHT22;7138;49.246;9.100;2022-12-04T09:37:41;2.70;99.90
14119;DHT22;7138;49.246;9.100;2022-12-04T09:40:11;2.70;99.90
14119;DHT22;7138;49.246;9.100;2022-12-04T09:42:51;2.70;99.90
14119;DHT22;7138;49.246;9.100;2022-12-04T09:45:24;2.70;99.90
14119;DHT22;7138;49.246;9.100;2022-12-04T09:47:53;2.70;99.90
14119;DHT22;7138;49.246;9.100;2022-12-04T09:50:25;2.70;99.90
14119;DHT22;7138;49.246;9.100;2022-12-04T09:53:01;2.80;99.90
14119;DHT22;7138;49.246;9.100;2022-12-04T09:55:35;2.80;99.90
14119;DHT22;7138;49.246;9.100;2022-12-04T09:58:08;2.80;99.90
14119;DHT22;7138;49.246;9.100;2022-12-04T10:00:41;2.70;99.90
14119;DHT22;7138;49.246;9.100;2022-12-04T10:03:14;2.70;99.90
14119;DHT22;7138;49.246;9.100;2022-12-04T10:05:48;2.80;99.90
14119;DHT22;7138;49.246;9.100;2022-12-04T10:08:24;2.80;99.90
14119;DHT22;7138;49.246;9.100;2022-12-04T10:11:00;2.80;99.90
14119;DHT22;7138;49.246;9.100;2022-12-04T10:13:43;2.80;99.90
14119;DHT22;7138;49.246;9.100;2022-12-04T10:16:24;2.80;99.90
14119;DHT22;7138;49.246;9.100;2022-12-04T10:19:02;2.80;99.90
14119;DHT22;7138;49.246;9.100;2022-12-04T10:21:43;2.90;99.90
14119;DHT22;7138;49.246;9.100;2022-12-04T10:24:33;2.80;99.90
14119;DHT22;7138;49.246;9.100;2022-12-04T10:27:11;2.90;99.90
14119;DHT22;7138;49.246;9.100;2022-12-04T10:29:42;2.90;99.90
14119;DHT22;7138;49.246;9.100;2022-12-04T10:32:17;2.90;99.90
14119;DHT22;7138;49.246;9.100;2022-12-04T10:34:48;2.90;99.90
14119;DHT22;7138;49.246;9.100;2022-12-04T10:37:17;2.90;99.90
14119;DHT22;7138;49.246;9.100;2022-12-04T10:39:50;3.00;99.90
14119;DHT22;7138;49.246;9.100;2022-12-04T10:42:24;3.00;99.90
14119;DHT22;7138;49.246;9.100;2022-12-04T10:44:54;3.00;99.90
14119;DHT22;7138;49.246;9.100;2022-12-04T10:47:21;3.10;99.90
14119;DHT22;7138;49.246;9.100;2022-12-04T10:49:58;3.00;99.90
14119;DHT22;7138;49.246;9.100;2022-12-04T10:52:26;3.10;99.90
14119;DHT22;7138;49.246;9.100;2022-12-04T10:54:56;3.10;99.90
14119;DHT22;7138;49.246;9.100;2022-12-04T10:57:34;3.10;99.90
14119;DHT22;7138;49.246;9.100;2022-12-04T11:00:04;3.10;99.90
14119;DHT22;7138;49.246;9.100;2022-12-04T11:02:49;3.10;99.90
14119;DHT22;7138;49.246;9.100;2022-12-04T11:05:23;3.10;99.90
14119;DHT22;7138;49.246;9.100;2022-12-04T11:07:53;3.20;99.90
14119;DHT22;7138;49.246;9.100;2022-12-04T11:10:26;3.10;99.90
14119;DHT22;7138;49.246;9.100;2022-12-04T11:12:58;3.20;99.90
14119;DHT22;7138;49.246;9.100;2022-12-04T11:15:26;3.20;99.90
14119;DHT22;7138;49.246;9.100;2022-12-04T11:17:52;3.20;99.90
14119;DHT22;7138;49.246;9.100;2022-12-04T11:20:20;3.20;99.90
14119;DHT22;7138;49.246;9.100;2022-12-04T11:22:50;3.20;99.90
14119;DHT22;7138;49.246;9.100;2022-12-04T11:25:20;3.20;99.90
14119;DHT22;7138;49.246;9.100;2022-12-04T11:27:50;3.20;99.90
14119;DHT22;7138;49.246;9.100;2022-12-04T11:30:24;3.20;99.90
14119;DHT22;7138;49.246;9.100;2022-12-04T11:32:52;3.20;99.90
14119;DHT22;7138;49.246;9.100;2022-12-04T11:35:21;3.20;99.90
14119;DHT22;7138;49.246;9.100;2022-12-04T11:37:55;3.20;99.90
14119;DHT22;7138;49.246;9.100;2022-12-04T11:40:24;3.20;99.90
14119;DHT22;7138;49.246;9.100;2022-12-04T11:43:03;3.20;99.90
14119;DHT22;7138;49.246;9.100;2022-12-04T11:45:31;3.20;99.90
14119;DHT22;7138;49.246;9.100;2022-12-04T11:48:01;3.20;99.90
14119;DHT22;7138;49.246;9.100;2022-12-04T11:50:37;3.20;99.90
14119;DHT22;7138;49.246;9.100;2022-12-04T11:53:13;3.20;99.90
14119;DHT22;7138;49.246;9.100;2022-12-04T11:56:05;3.20;99.90
14119;DHT22;7138;49.246;9.100;2022-12-04T11:58:49;3.20;99.90
14119;DHT22;7138;49.246;9.100;2022-12-04T12:01:35;3.10;99.90
14119;DHT22;7138;49.246;9.100;2022-12-04T12:04:24;3.10;99.90
14119;DHT22;7138;49.246;9.100;2022-12-04T12:07:12;3.10;99.90
14119;DHT22;7138;49.246;9.100;2022-12-04T12:09:51;3.10;99.90
14119;DHT22;7138;49.246;9.100;2022-12-04T12:12:32;3.10;99.90
14119;DHT22;7138;49.246;9.100;2022-12-04T12:15:13;3.10;99.90
14119;DHT22;7138;49.246;9.100;2022-12-04T12:17:49;3.20;99.90
14119;DHT22;7138;49.246;9.100;2022-12-04T12:20:28;3.10;99.90
14119;DHT22;7138;49.246;9.100;2022-12-04T12:23:21;3.10;99.90
14119;DHT22;7138;49.246;9.100;2022-12-04T12:26:03;3.20;99.90
14119;DHT22;7138;49.246;9.100;2022-12-04T12:28:47;3.10;99.90
14119;DHT22;7138;49.246;9.100;2022-12-04T12:31:50;3.10;99.90
14119;DHT22;7138;49.246;9.100;2022-12-04T12:34:34;3.10;99.90
14119;DHT22;7138;49.246;9.100;2022-12-04T12:37:09;3.10;99.90
14119;DHT22;7138;49.246;9.100;2022-12-04T12:39:44;3.10;99.90
14119;DHT22;7138;49.246;9.100;2022-12-04T12:42:19;3.10;99.90
14119;DHT22;7138;49.246;9.100;2022-12-04T12:44:53;3.00;99.90
14119;DHT22;7138;49.246;9.100;2022-12-04T12:47:29;3.00;99.90
14119;DHT22;7138;49.246;9.100;2022-12-04T12:50:03;3.00;99.90
14119;DHT22;7138;49.246;9.100;2022-12-04T12:52:38;3.00;99.90
14119;DHT22;7138;49.246;9.100;2022-12-04T12:55:15;3.10;99.90
14119;DHT22;7138;49.246;9.100;2022-12-04T12:57:48;3.10;99.90
14119;DHT22;7138;49.246;9.100;2022-12-04T13:00:20;3.10;99.90
14119;DHT22;7138;49.246;9.100;2022-12-04T13:02:53;3.10;99.90
14119;DHT22;7138;49.246;9.100;2022-12-04T13:05:28;3.10;99.90
14119;DHT22;7138;49.246;9.100;2022-12-04T13:08:02;3.10;99.90
14119;DHT22;7138;49.246;9.100;2022-12-04T13:10:41;3.00;99.90
14119;DHT22;7138;49.246;9.100;2022-12-04T13:13:13;3.10;99.90
14119;DHT22;7138;49.246;9.100;2022-12-04T13:15:46;3.00;99.90
14119;DHT22;7138;49.246;9.100;2022-12-04T13:18:22;3.00;99.90
14119;DHT22;7138;49.246;9.100;2022-12-04T13:20:54;3.00;99.90
14119;DHT22;7138;49.246;9.100;2022-12-04T13:23:39;3.00;99.90
14119;DHT22;7138;49.246;9.100;2022-12-04T13:26:28;3.00;99.90
14119;DHT22;7138;49.246;9.100;2022-12-04T13:29:10;3.10;99.90
14119;DHT22;7138;49.246;9.100;2022-12-04T13:31:47;3.00;99.90
14119;DHT22;7138;49.246;9.100;2022-12-04T13:34:49;3.00;99.90
14119;DHT22;7138;49.246;9.100;2022-12-04T13:37:39;3.00;99.90
14119;DHT22;7138;49.246;9.100;2022-12-04T13:40:32;3.00;99.90
14119;DHT22;7138;49.246;9.100;2022-12-04T13:43:32;3.10;99.90
14119;DHT22;7138;49.246;9.100;2022-12-04T13:46:03;3.10;99.90
14119;DHT22;7138;49.246;9.100;2022-12-04T13:48:37;3.10;99.90
14119;DHT22;7138;49.246;9.100;2022-12-04T13:51:23;3.10;99.90
14119;DHT22;7138;49.246;9.100;2022-12-04T13:56:52;3.10;99.90
14119;DHT22;7138;49.246;9.100;2022-12-04T13:59:23;3.20;99.90
14119;DHT22;7138;49.246;9.100;2022-12-04T14:02:00;3.20;99.90
14119;DHT22;7138;49.246;9.100;2022-12-04T14:04:29;3.20;99.90
14119;DHT22;7138;49.246;9.100;2022-12-04T14:06:59;3.20;99.90
14119;DHT22;7138;49.246;9.100;2022-12-04T14:09:31;3.20;99.90
14119;DHT22;7138;49.246;9.100;2022-12-04T14:12:06;3.20;99.90
14119;DHT22;7138;49.246;9.100;2022-12-04T14:14:37;3.20;99.90
14119;DHT22;7138;49.246;9.100;2022-12-04T14:17:18;3.20;99.90
14119;DHT22;7138;49.246;9.100;2022-12-04T14:19:51;3.20;99.90
14119;DHT22;7138;49.246;9.100;2022-12-04T14:22:37;3.20;99.90
14119;DHT22;7138;49.246;9.100;2022-12-04T14:25:18;3.20;99.90
14119;DHT22;7138;49.246;9.100;2022-12-04T14:27:49;3.20;99.90
14119;DHT22;7138;49.246;9.100;2022-12-04T14:30:19;3.20;99.90
14119;DHT22;7138;49.246;9.100;2022-12-04T14:32:48;3.20;99.90
14119;DHT22;7138;49.246;9.100;2022-12-04T14:35:20;3.20;99.90
14119;DHT22;7138;49.246;9.100;2022-12-04T14:37:54;3.20;99.90
14119;DHT22;7138;49.246;9.100;2022-12-04T14:40:26;3.20;99.90
14119;DHT22;7138;49.246;9.100;2022-12-04T14:42:54;3.20;99.90
14119;DHT22;7138;49.246;9.100;2022-12-04T14:45:25;3.10;99.90
14119;DHT22;7138;49.246;9.100;2022-12-04T14:48:09;3.10;99.90
14119;DHT22;7138;49.246;9.100;2022-12-04T14:50:51;3.00;99.90
14119;DHT22;7138;49.246;9.100;2022-12-04T14:53:32;3.10;99.90
14119;DHT22;7138;49.246;9.100;2022-12-04T14:56:15;3.10;99.90
14119;DHT22;7138;49.246;9.100;2022-12-04T14:58:48;3.00;99.90
14119;DHT22;7138;49.246;9.100;2022-12-04T15:01:20;3.00;99.90
14119;DHT22;7138;49.246;9.100;2022-12-04T15:03:49;3.00;99.90
14119;DHT22;7138;49.246;9.100;2022-12-04T15:06:22;3.00;99.90
14119;DHT22;7138;49.246;9.100;2022-12-04T15:08:53;3.10;99.90
14119;DHT22;7138;49.246;9.100;2022-12-04T15:11:44;3.00;99.90
14119;DHT22;7138;49.246;9.100;2022-12-04T15:14:39;3.10;99.90
14119;DHT22;7138;49.246;9.100;2022-12-04T15:17:08;3.10;99.90
14119;DHT22;7138;49.246;9.100;2022-12-04T15:19:34;3.10;99.90
14119;DHT22;7138;49.246;9.100;2022-12-04T15:22:02;3.10;99.90
14119;DHT22;7138;49.246;9.100;2022-12-04T15:24:30;3.10;99.90
14119;DHT22;7138;49.246;9.100;2022-12-04T15:26:56;3.10;99.90
14119;DHT22;7138;49.246;9.100;2022-12-04T15:29:25;3.10;99.90
14119;DHT22;7138;49.246;9.100;2022-12-04T15:31:59;3.10;99.90
14119;DHT22;7138;49.246;9.100;2022-12-04T15:34:35;3.10;99.90
14119;DHT22;7138;49.246;9.100;2022-12-04T15:37:05;3.10;99.90
14119;DHT22;7138;49.246;9.100;2022-12-04T15:39:38;3.10;99.90
14119;DHT22;7138;49.246;9.100;2022-12-04T15:42:12;3.10;99.90
14119;DHT22;7138;49.246;9.100;2022-12-04T15:44:49;3.10;99.90
14119;DHT22;7138;49.246;9.100;2022-12-04T15:47:19;3.20;99.90
14119;DHT22;7138;49.246;9.100;2022-12-04T15:49:47;3.20;99.90
14119;DHT22;7138;49.246;9.100;2022-12-04T15:52:15;3.20;99.90
14119;DHT22;7138;49.246;9.100;2022-12-04T15:54:49;3.20;99.90
14119;DHT22;7138;49.246;9.100;2022-12-04T15:57:25;3.20;99.90
14119;DHT22;7138;49.246;9.100;2022-12-04T15:59:53;3.20;99.90
14119;DHT22;7138;49.246;9.100;2022-12-04T16:02:23;3.20;99.90
14119;DHT22;7138;49.246;9.100;2022-12-04T16:04:53;3.20;99.90
14119;DHT22;7138;49.246;9.100;2022-12-04T16:07:21;3.20;99.90
14119;DHT22;7138;49.246;9.100;2022-12-04T16:09:53;3.20;99.90
14119;DHT22;7138;49.246;9.100;2022-12-04T16:12:24;3.20;99.90
14119;DHT22;7138;49.246;9.100;2022-12-04T16:14:53;3.20;99.90
14119;DHT22;7138;49.246;9.100;2022-12-04T16:17:28;3.20;99.90
14119;DHT22;7138;49.246;9.100;2022-12-04T16:19:56;3.20;99.90
14119;DHT22;7138;49.246;9.100;2022-12-04T16:22:24;3.20;99.90
14119;DHT22;7138;49.246;9.100;2022-12-04T16:24:52;3.20;99.90
14119;DHT22;7138;49.246;9.100;2022-12-04T16:27:21;3.20;99.90
14119;DHT22;7138;49.246;9.100;2022-12-04T16:29:48;3.20;99.90
14119;DHT22;7138;49.246;9.100;2022-12-04T16:32:17;3.20;99.90
14119;DHT22;7138;49.246;9.100;2022-12-04T16:34:45;3.20;99.90